New Iberia, Louisiana
Current Conditions -  °F | °C
As of 1:53 AM on Tuesday 21 Oct 2014 (Local Time) from KARA Reporting Station
Clear Clear  
Wind Chill: 62°   Ceiling: Unl
Heat Index: 62°   Visibility: 10mi
Dew Point: 55°   Wind: 7mph
Humidity: 78%   Direction: 50°NE
Pressure: 30.02"   Gusts: NA
Location:  30.01°N, 91.82°W
Report Text: KARA 210653Z AUTO 05006KT 10SM CLR 17/13 A3002 RMK AO2 SLP164 T01670128
Loading
Personal Weather Stations






























Interactive Weather Map
Tropical Storm Tracking
New forecast layout! Learn more

10-Day Weather Forecast

Advertisements
Track Severe Weather on mobile